Time;durP1;ratioP1;P1;durP2;ratioP2;P2;SDS_P1;SDS_P2;PMS_P1;PMS_P2;Temp;Humidity;BMP_temperature;BMP_pressure;BME280_temperature;BME280_humidity;BME280_pressure;Samples;Min_cycle;Max_cycle;Signal;HPM_P1;HPM_P2
2021/09/03 00:00:25;;;;;;;;;;;;;;;19.63;56.93;101332.97;5040096;28;1018;-47
2021/09/03 00:02:52;;;;;;;;;;;;;;;19.95;57.70;101338.13;5039099;28;787;-46
2021/09/03 00:05:19;;;;;;;;;;;;;;;20.28;57.92;101330.22;5037460;28;1318;-44
2021/09/03 00:07:45;;;;;;;;;;;;;;;20.32;58.83;101336.81;5049577;28;1128;-42
2021/09/03 00:10:12;;;;;;;;;;;;;;;20.38;59.43;101337.59;5058528;28;1917;-46
2021/09/03 00:12:38;;;;;;;;;;;;;;;20.77;58.38;101339.56;5058382;28;814;-47
2021/09/03 00:15:05;;;;;;;;;;;;;;;20.63;59.25;101333.03;5042943;28;975;-45
2021/09/03 00:17:31;;;;;;;;;;;;;;;21.13;57.90;101332.94;5038777;28;767;-43
2021/09/03 00:19:57;;;;;;;;;;;;;;;20.98;58.10;101331.94;5038120;28;747;-43
2021/09/03 00:22:23;;;;;;;;;;;;;;;20.35;57.72;101327.94;5038747;28;767;-47
2021/09/03 00:24:51;;;;;;;;;;;;;;;19.88;55.32;101336.75;5021055;28;1152;-44
2021/09/03 00:27:18;;;;;;;;;;;;;;;19.37;52.72;101335.78;5038117;28;747;-50
2021/09/03 00:29:44;;;;;;;;;;;;;;;18.86;50.81;101335.81;5038040;28;1910;-46
2021/09/03 00:32:12;;;;;;;;;;;;;;;18.53;49.47;101326.97;5038752;28;783;-45
2021/09/03 00:34:41;;;;;;;;;;;;;;;18.40;49.53;101329.16;5037902;28;759;-48
2021/09/03 00:37:07;;;;;;;;;;;;;;;18.92;51.01;101323.72;5038549;28;871;-48
2021/09/03 00:39:33;;;;;;;;;;;;;;;19.19;54.14;101333.63;5038341;28;779;-48
2021/09/03 00:42:00;;;;;;;;;;;;;;;19.48;55.87;101331.91;5036651;28;818;-49
2021/09/03 00:44:27;;;;;;;;;;;;;;;19.71;57.35;101329.63;5040493;28;1210;-51
2021/09/03 00:46:53;;;;;;;;;;;;;;;20.02;57.75;101323.19;5038496;28;830;-49
2021/09/03 00:49:19;;;;;;;;;;;;;;;20.09;58.72;101319.00;5036262;28;1032;-44
2021/09/03 00:51:45;;;;;;;;;;;;;;;20.39;58.76;101327.41;5037953;28;1906;-46
2021/09/03 00:54:11;;;;;;;;;;;;;;;20.54;58.74;101320.94;5036827;28;789;-45
2021/09/03 00:56:37;;;;;;;;;;;;;;;20.61;59.11;101318.69;5036559;28;791;-46
2021/09/03 00:59:09;;;;;;;;;;;;;;;20.87;58.56;101316.56;5037623;28;1004;-45
2021/09/03 01:01:36;;;;;;;;;;;;;;;20.78;58.96;101319.13;5037801;28;764;-52
2021/09/03 01:04:07;;;;;;;;;;;;;;;20.74;58.82;101322.75;5037694;28;780;-46
2021/09/03 01:06:43;;;;;;;;;;;;;;;20.44;56.98;101314.38;5037641;28;831;-52
2021/09/03 01:09:12;;;;;;;;;;;;;;;19.89;55.63;101308.06;5036534;28;831;-46
2021/09/03 01:11:38;;;;;;;;;;;;;;;19.62;54.17;101317.53;5036043;28;1981;-45
2021/09/03 01:14:04;;;;;;;;;;;;;;;19.30;52.90;101308.50;5037816;28;963;-49
2021/09/03 01:16:32;;;;;;;;;;;;;;;18.96;51.87;101308.28;5037549;28;751;-50
2021/09/03 01:18:59;;;;;;;;;;;;;;;18.71;51.31;101309.91;5036224;28;835;-45
2021/09/03 01:21:25;;;;;;;;;;;;;;;18.67;51.65;101317.06;5037727;28;767;-43
2021/09/03 01:23:57;;;;;;;;;;;;;;;18.88;53.23;101311.59;5037495;28;813;-46
2021/09/03 01:26:32;;;;;;;;;;;;;;;19.26;55.33;101309.34;5036942;28;807;-43
2021/09/03 01:29:01;;;;;;;;;;;;;;;19.59;57.08;101320.84;5037096;28;1002;-43
2021/09/03 01:31:29;;;;;;;;;;;;;;;19.85;58.05;101318.03;5036708;28;1914;-44
2021/09/03 01:33:57;;;;;;;;;;;;;;;20.17;58.20;101309.28;5037001;28;771;-42
2021/09/03 01:36:37;;;;;;;;;;;;;;;20.52;58.01;101307.41;5037221;28;823;-45
2021/09/03 01:39:06;;;;;;;;;;;;;;;20.44;59.05;101308.00;5037241;28;760;-53
2021/09/03 01:41:31;;;;;;;;;;;;;;;20.68;58.87;101316.47;5036998;28;894;-52
2021/09/03 01:44:00;;;;;;;;;;;;;;;20.90;58.44;101312.38;5038888;28;1206;-51
2021/09/03 01:46:31;;;;;;;;;;;;;;;21.01;58.50;101311.19;5036966;28;779;-47
2021/09/03 01:48:59;;;;;;;;;;;;;;;21.08;58.16;101319.97;5036518;28;998;-47
2021/09/03 01:51:25;;;;;;;;;;;;;;;20.38;58.19;101332.09;5036948;28;1976;-41
2021/09/03 01:53:51;;;;;;;;;;;;;;;19.94;55.79;101327.38;5036948;28;862;-43
2021/09/03 01:56:16;;;;;;;;;;;;;;;19.31;53.41;101328.66;5036500;28;844;-50
2021/09/03 01:58:43;;;;;;;;;;;;;;;19.12;50.95;101322.88;5036193;28;951;-47
2021/09/03 02:01:09;;;;;;;;;;;;;;;18.89;48.59;101324.28;5036928;28;779;-46
2021/09/03 02:03:34;;;;;;;;;;;;;;;18.41;49.04;101325.31;5036252;28;743;-47
2021/09/03 02:06:00;;;;;;;;;;;;;;;18.80;51.87;101316.53;5036571;28;735;-50
2021/09/03 02:08:25;;;;;;;;;;;;;;;19.11;54.53;101322.06;5036612;28;834;-45
2021/09/03 02:10:51;;;;;;;;;;;;;;;19.47;56.02;101324.75;5036015;28;1914;-47
2021/09/03 02:13:16;;;;;;;;;;;;;;;19.79;57.12;101331.81;5036100;28;1026;-45
2021/09/03 02:15:42;;;;;;;;;;;;;;;20.00;58.07;101327.03;5036825;28;755;-46
2021/09/03 02:18:07;;;;;;;;;;;;;;;20.15;58.79;101337.19;5036125;28;791;-45
2021/09/03 02:20:35;;;;;;;;;;;;;;;20.50;58.46;101340.84;5036370;28;743;-48
2021/09/03 02:23:01;;;;;;;;;;;;;;;20.50;59.06;101335.31;5036108;28;759;-48
2021/09/03 02:25:26;;;;;;;;;;;;;;;20.75;58.82;101333.53;5035974;28;783;-46
2021/09/03 02:27:52;;;;;;;;;;;;;;;20.82;59.00;101334.00;5036481;28;779;-50
2021/09/03 02:30:17;;;;;;;;;;;;;;;21.28;57.67;101332.78;5035258;28;1967;-45
2021/09/03 02:32:43;;;;;;;;;;;;;;;21.15;58.53;101328.75;5035697;28;831;-51
2021/09/03 02:35:09;;;;;;;;;;;;;;;20.86;58.53;101334.28;5036350;28;854;-56
2021/09/03 02:37:36;;;;;;;;;;;;;;;20.23;57.62;101330.25;5036420;28;751;-47
2021/09/03 02:40:05;;;;;;;;;;;;;;;19.71;56.44;101326.84;5035640;28;771;-45
2021/09/03 02:42:31;;;;;;;;;;;;;;;19.51;54.23;101321.44;5035110;28;1307;-58
2021/09/03 02:45:00;;;;;;;;;;;;;;;19.29;52.35;101323.41;5038136;28;1199;-47
2021/09/03 02:47:26;;;;;;;;;;;;;;;19.10;51.08;101325.09;5035933;28;775;-46
2021/09/03 02:49:51;;;;;;;;;;;;;;;18.68;51.09;101324.25;5035723;28;1985;-47
2021/09/03 02:52:17;;;;;;;;;;;;;;;18.76;51.51;101320.94;5035801;28;799;-49
2021/09/03 02:54:42;;;;;;;;;;;;;;;19.06;53.64;101332.25;5035758;28;807;-44
2021/09/03 02:57:08;;;;;;;;;;;;;;;19.42;55.28;101341.31;5036213;28;779;-49
2021/09/03 02:59:34;;;;;;;;;;;;;;;19.59;57.43;101342.94;5034634;28;987;-44
2021/09/03 03:01:59;;;;;;;;;;;;;;;19.94;57.84;101349.44;5035484;28;802;-47
2021/09/03 03:04:25;;;;;;;;;;;;;;;20.20;58.12;101347.38;5035838;28;720;-46
2021/09/03 03:06:50;;;;;;;;;;;;;;;20.30;58.88;101363.91;5035850;28;799;-43
2021/09/03 03:09:16;;;;;;;;;;;;;;;20.59;58.65;101365.09;5035621;28;764;-47
2021/09/03 03:11:41;;;;;;;;;;;;;;;20.62;58.69;101372.81;5035908;28;1910;-48
2021/09/03 03:14:26;;;;;;;;;;;;;;;20.40;58.33;101376.84;5035448;28;979;-46
2021/09/03 03:16:54;;;;;;;;;;;;;;;20.11;57.45;101383.03;5035609;28;811;-44
2021/09/03 03:19:19;;;;;;;;;;;;;;;19.91;55.81;101385.88;5035771;28;740;-42
2021/09/03 03:21:48;;;;;;;;;;;;;;;19.64;54.85;101398.06;5035841;28;843;-51
2021/09/03 03:24:13;;;;;;;;;;;;;;;19.36;54.40;101392.03;5035357;28;752;-54
2021/09/03 03:26:39;;;;;;;;;;;;;;;19.32;53.39;101390.94;5036033;28;819;-47
2021/09/03 03:29:04;;;;;;;;;;;;;;;19.20;52.98;101398.69;5035294;28;943;-45
2021/09/03 03:31:32;;;;;;;;;;;;;;;19.04;52.74;101411.63;5035415;28;1959;-48
2021/09/03 03:34:00;;;;;;;;;;;;;;;18.96;52.44;101407.50;5051271;28;629;-46
2021/09/03 03:36:26;;;;;;;;;;;;;;;19.03;52.60;101407.22;5035659;28;762;-45
2021/09/03 03:38:51;;;;;;;;;;;;;;;19.26;54.54;101408.59;5035596;28;819;-47
2021/09/03 03:41:17;;;;;;;;;;;;;;;19.64;55.91;101406.34;5036767;28;770;-44
2021/09/03 03:43:42;;;;;;;;;;;;;;;19.87;57.06;101410.47;5041394;28;1096;-46
2021/09/03 03:46:10;;;;;;;;;;;;;;;19.99;58.29;101413.75;5039083;28;755;-50
2021/09/03 03:48:36;;;;;;;;;;;;;;;20.24;58.19;101417.50;5041105;28;1160;-48
2021/09/03 03:51:02;;;;;;;;;;;;;;;20.00;58.46;101414.56;5059314;28;1910;-48
2021/09/03 03:53:27;;;;;;;;;;;;;;;19.99;57.05;101418.41;5058150;28;1212;-50
2021/09/03 03:55:53;;;;;;;;;;;;;;;19.80;56.27;101420.97;5059025;28;823;-46
2021/09/03 03:58:18;;;;;;;;;;;;;;;19.47;55.78;101423.19;5058337;28;954;-51
2021/09/03 04:00:46;;;;;;;;;;;;;;;19.29;55.02;101430.94;5038946;28;763;-46
2021/09/03 04:03:15;;;;;;;;;;;;;;;19.14;54.46;101437.28;5038976;28;850;-48
2021/09/03 04:05:40;;;;;;;;;;;;;;;18.93;54.59;101433.69;5038869;28;807;-46
2021/09/03 04:08:06;;;;;;;;;;;;;;;18.97;53.90;101425.66;5038545;28;760;-46
2021/09/03 04:10:32;;;;;;;;;;;;;;;18.89;53.62;101440.03;5037479;28;2001;-48
2021/09/03 04:12:57;;;;;;;;;;;;;;;18.87;53.43;101442.16;5039605;28;799;-55
2021/09/03 04:15:23;;;;;;;;;;;;;;;18.92;53.37;101445.78;5038099;28;955;-48
2021/09/03 04:17:48;;;;;;;;;;;;;;;19.03;54.38;101451.31;5038573;28;800;-55
2021/09/03 04:20:13;;;;;;;;;;;;;;;19.14;55.36;101448.31;5038606;28;871;-50
2021/09/03 04:22:39;;;;;;;;;;;;;;;19.52;56.78;101442.50;5038313;28;784;-46
2021/09/03 04:25:05;;;;;;;;;;;;;;;19.65;57.85;101454.91;5038511;28;902;-49
2021/09/03 04:27:30;;;;;;;;;;;;;;;19.89;58.53;101446.06;5037840;28;783;-48
2021/09/03 04:29:56;;;;;;;;;;;;;;;20.06;58.90;101451.25;5037915;28;1926;-57
2021/09/03 04:32:21;;;;;;;;;;;;;;;20.38;58.48;101455.56;5038329;28;752;-49
2021/09/03 04:34:46;;;;;;;;;;;;;;;20.43;59.03;101459.13;5038677;28;744;-60
2021/09/03 04:37:12;;;;;;;;;;;;;;;20.63;58.75;101460.13;5038014;28;791;-48
2021/09/03 04:39:38;;;;;;;;;;;;;;;20.74;59.01;101458.19;5038418;28;807;-47
2021/09/03 04:42:04;;;;;;;;;;;;;;;20.75;58.96;101460.66;5038458;28;759;-49
2021/09/03 04:44:29;;;;;;;;;;;;;;;20.65;58.63;101463.44;5039578;28;1168;-46
2021/09/03 04:46:55;;;;;;;;;;;;;;;19.93;57.85;101463.72;5038225;28;783;-59
2021/09/03 04:49:20;;;;;;;;;;;;;;;19.49;54.93;101465.13;5038155;28;1087;-45
2021/09/03 04:51:45;;;;;;;;;;;;;;;18.90;51.98;101458.19;5037683;28;1972;-46
2021/09/03 04:54:11;;;;;;;;;;;;;;;18.54;50.42;101449.81;5037026;28;819;-46
2021/09/03 04:56:36;;;;;;;;;;;;;;;18.33;48.71;101463.50;5038213;28;843;-59
2021/09/03 04:59:02;;;;;;;;;;;;;;;18.46;50.48;101463.00;5037421;28;963;-45
2021/09/03 05:01:27;;;;;;;;;;;;;;;18.77;53.97;101454.81;5037919;28;834;-59
2021/09/03 05:03:53;;;;;;;;;;;;;;;19.14;55.97;101464.84;5038383;28;764;-45
2021/09/03 05:06:18;;;;;;;;;;;;;;;19.33;57.86;101472.56;5037632;28;1026;-47
2021/09/03 05:08:44;;;;;;;;;;;;;;;19.82;57.79;101469.28;5037512;28;807;-46
2021/09/03 05:11:09;;;;;;;;;;;;;;;19.91;58.92;101476.97;5037631;28;1906;-48
2021/09/03 05:13:35;;;;;;;;;;;;;;;20.09;59.15;101479.16;5037340;28;971;-48
2021/09/03 05:16:00;;;;;;;;;;;;;;;20.33;59.05;101478.53;5037600;28;875;-48
2021/09/03 05:18:26;;;;;;;;;;;;;;;20.37;59.53;101495.34;5037673;28;875;-46
2021/09/03 05:20:51;;;;;;;;;;;;;;;20.67;59.02;101491.63;5037785;28;775;-45
2021/09/03 05:23:17;;;;;;;;;;;;;;;20.83;58.88;101492.38;5037106;28;748;-60
2021/09/03 05:25:42;;;;;;;;;;;;;;;20.95;58.59;101483.75;5037468;28;724;-44
2021/09/03 05:28:07;;;;;;;;;;;;;;;21.07;58.36;101481.47;5037452;28;758;-58
2021/09/03 05:30:33;;;;;;;;;;;;;;;20.63;58.35;101487.78;5036786;28;1913;-44
2021/09/03 05:32:58;;;;;;;;;;;;;;;19.84;57.05;101488.31;5037697;28;825;-58
2021/09/03 05:35:27;;;;;;;;;;;;;;;19.40;53.82;101488.84;5037478;28;769;-51
2021/09/03 05:37:52;;;;;;;;;;;;;;;18.79;51.41;101479.38;5036806;28;842;-50
2021/09/03 05:40:18;;;;;;;;;;;;;;;18.95;48.67;101477.50;5037581;28;819;-58
2021/09/03 05:42:43;;;;;;;;;;;;;;;18.52;47.82;101485.06;5037257;28;787;-43
2021/09/03 05:45:09;;;;;;;;;;;;;;;19.18;48.80;101480.84;5038716;28;1222;-48
2021/09/03 05:47:34;;;;;;;;;;;;;;;19.55;51.89;101490.78;5037036;28;795;-46
2021/09/03 05:49:59;;;;;;;;;;;;;;;19.81;53.92;101488.84;5036675;28;1910;-55
2021/09/03 05:52:25;;;;;;;;;;;;;;;20.21;54.75;101487.09;5037141;28;744;-46
2021/09/03 05:54:50;;;;;;;;;;;;;;;20.39;55.96;101487.59;5035799;28;775;-47
2021/09/03 05:57:16;;;;;;;;;;;;;;;20.64;56.26;101494.97;5037178;28;799;-52
2021/09/03 05:59:41;;;;;;;;;;;;;;;20.80;56.61;101496.56;5036299;28;956;-57
2021/09/03 06:02:07;;;;;;;;;;;;;;;21.02;56.66;101507.19;5035349;28;851;-58
2021/09/03 06:04:32;;;;;;;;;;;;;;;21.14;56.84;101504.09;5036739;28;799;-47
2021/09/03 06:06:57;;;;;;;;;;;;;;;21.12;57.21;101511.84;5036424;28;843;-48
2021/09/03 06:09:23;;;;;;;;;;;;;;;21.43;56.82;101513.56;5036613;28;807;-46
2021/09/03 06:11:48;;;;;;;;;;;;;;;21.69;56.23;101509.50;5037034;28;1910;-54
2021/09/03 06:14:14;;;;;;;;;;;;;;;21.59;56.49;101505.97;5039587;28;1014;-46
2021/09/03 06:16:39;;;;;;;;;;;;;;;21.65;56.40;101515.91;5055864;28;728;-47
2021/09/03 06:19:05;;;;;;;;;;;;;;;21.07;55.99;101517.41;5056498;28;735;-51
2021/09/03 06:21:30;;;;;;;;;;;;;;;20.71;54.12;101512.09;5056538;28;834;-46
2021/09/03 06:23:56;;;;;;;;;;;;;;;20.29;52.85;101516.91;5056190;28;798;-45
2021/09/03 06:26:22;;;;;;;;;;;;;;;20.03;51.01;101523.59;5056248;28;543;-48
2021/09/03 06:28:47;;;;;;;;;;;;;;;19.61;50.30;101515.31;5050865;28;942;-47
2021/09/03 06:31:13;;;;;;;;;;;;;;;19.55;49.13;101515.63;5036168;28;1977;-52
2021/09/03 06:33:38;;;;;;;;;;;;;;;19.17;49.17;101512.25;5036456;28;883;-46
2021/09/03 06:36:04;;;;;;;;;;;;;;;19.44;48.75;101512.03;5036005;28;795;-52
2021/09/03 06:38:31;;;;;;;;;;;;;;;19.22;50.58;101504.00;5035981;28;860;-59
2021/09/03 06:40:57;;;;;;;;;;;;;;;19.54;50.93;101511.19;5036426;28;768;-59
2021/09/03 06:43:22;;;;;;;;;;;;;;;19.72;51.48;101515.34;5038145;28;1124;-57
2021/09/03 06:45:48;;;;;;;;;;;;;;;19.69;52.08;101513.13;5035983;28;747;-59
2021/09/03 06:48:13;;;;;;;;;;;;;;;19.78;52.92;101512.28;5036328;28;870;-49
2021/09/03 06:50:39;;;;;;;;;;;;;;;19.82;54.81;101513.44;5035777;28;1978;-59
2021/09/03 06:53:06;;;;;;;;;;;;;;;20.20;55.54;101515.00;5035934;28;836;-47
2021/09/03 06:55:31;;;;;;;;;;;;;;;20.35;56.45;101523.25;5035286;28;829;-55
2021/09/03 06:57:57;;;;;;;;;;;;;;;20.79;56.33;101522.56;5035623;28;740;-60
2021/09/03 07:00:22;;;;;;;;;;;;;;;20.92;56.49;101514.75;5035707;28;963;-47
2021/09/03 07:02:48;;;;;;;;;;;;;;;21.07;56.86;101513.81;5049109;28;1104;-47
2021/09/03 07:05:13;;;;;;;;;;;;;;;21.15;57.11;101532.56;5055639;28;783;-48
2021/09/03 07:07:39;;;;;;;;;;;;;;;21.48;56.44;101525.41;5055111;28;763;-45
2021/09/03 07:10:04;;;;;;;;;;;;;;;21.65;56.18;101533.31;5055480;28;1922;-58
2021/09/03 07:12:30;;;;;;;;;;;;;;;21.57;56.18;101538.66;5055415;28;712;-46
2021/09/03 07:14:55;;;;;;;;;;;;;;;21.17;55.77;101535.88;5041734;28;971;-55
2021/09/03 07:17:21;;;;;;;;;;;;;;;20.55;53.84;101532.56;5057705;28;869;-49
2021/09/03 07:19:46;;;;;;;;;;;;;;;20.04;51.60;101537.13;5058905;28;818;-58
2021/09/03 07:22:12;;;;;;;;;;;;;;;19.45;49.63;101541.25;5059383;28;810;-49
2021/09/03 07:24:37;;;;;;;;;;;;;;;19.53;47.39;101542.63;5059323;28;775;-59
2021/09/03 07:27:03;;;;;;;;;;;;;;;18.69;48.21;101535.25;5059127;28;763;-48
2021/09/03 07:29:28;;;;;;;;;;;;;;;19.27;50.06;101535.16;5048248;28;1065;-59
2021/09/03 07:31:53;;;;;;;;;;;;;;;19.93;52.47;101543.78;5039130;28;1906;-50
2021/09/03 07:34:19;;;;;;;;;;;;;;;20.66;52.92;101531.41;5039133;28;743;-54
2021/09/03 07:36:45;;;;;;;;;;;;;;;20.54;55.05;101533.66;5038388;28;792;-48
2021/09/03 07:39:12;;;;;;;;;;;;;;;20.60;56.46;101535.31;5038703;28;775;-52
2021/09/03 07:41:38;;;;;;;;;;;;;;;20.85;56.57;101534.41;5038965;28;819;-58
2021/09/03 07:44:03;;;;;;;;;;;;;;;21.06;56.45;101532.34;5040406;28;1179;-54
2021/09/03 07:46:29;;;;;;;;;;;;;;;20.77;57.30;101535.00;5038720;28;851;-48
2021/09/03 07:48:54;;;;;;;;;;;;;;;20.21;56.09;101534.03;5038436;28;1171;-46
2021/09/03 07:51:20;;;;;;;;;;;;;;;19.78;53.85;101537.13;5038256;28;1910;-60
2021/09/03 07:53:45;;;;;;;;;;;;;;;19.34;52.01;101534.09;5038841;28;760;-46
2021/09/03 07:56:11;;;;;;;;;;;;;;;18.82;50.59;101522.91;5037448;28;1238;-59
2021/09/03 07:58:36;;;;;;;;;;;;;;;18.93;49.70;101529.31;5037499;28;940;-51
2021/09/03 08:01:02;;;;;;;;;;;;;;;19.09;51.41;101522.72;5038900;28;819;-50
2021/09/03 08:03:28;;;;;;;;;;;;;;;19.31;53.75;101527.19;5037672;28;924;-47
2021/09/03 08:05:53;;;;;;;;;;;;;;;19.45;56.15;101520.00;5038368;28;768;-55
2021/09/03 08:08:18;;;;;;;;;;;;;;;20.00;56.57;101519.47;5038188;28;795;-60
2021/09/03 08:10:44;;;;;;;;;;;;;;;20.22;57.46;101521.09;5038048;28;1906;-45
2021/09/03 08:13:09;;;;;;;;;;;;;;;20.35;57.92;101520.47;5037982;28;791;-53
2021/09/03 08:15:35;;;;;;;;;;;;;;;20.56;57.70;101525.94;5038378;28;955;-46
2021/09/03 08:18:01;;;;;;;;;;;;;;;20.72;58.13;101518.44;5037980;28;784;-48
2021/09/03 08:20:26;;;;;;;;;;;;;;;20.82;58.05;101518.41;5037908;28;768;-49
2021/09/03 08:22:52;;;;;;;;;;;;;;;20.82;58.54;101513.69;5038566;28;795;-47
2021/09/03 08:25:18;;;;;;;;;;;;;;;20.72;58.35;101508.22;5037983;28;835;-48
2021/09/03 08:27:44;;;;;;;;;;;;;;;20.43;57.21;101510.81;5037865;28;759;-46
2021/09/03 08:30:10;;;;;;;;;;;;;;;20.09;55.23;101506.75;5037082;28;1977;-47
2021/09/03 08:32:35;;;;;;;;;;;;;;;19.80;53.40;101512.88;5037883;28;910;-47
2021/09/03 08:35:01;;;;;;;;;;;;;;;19.38;52.31;101510.38;5037632;28;819;-50
2021/09/03 08:37:26;;;;;;;;;;;;;;;19.37;50.71;101505.94;5037868;28;839;-48
2021/09/03 08:39:52;;;;;;;;;;;;;;;19.13;49.74;101496.25;5037488;28;787;-47
2021/09/03 08:42:17;;;;;;;;;;;;;;;19.14;49.32;101503.44;5037612;28;816;-60
2021/09/03 08:44:44;;;;;;;;;;;;;;;19.06;50.60;101501.22;5039919;28;1163;-45
2021/09/03 08:47:10;;;;;;;;;;;;;;;19.18;51.68;101503.72;5037539;28;787;-58
2021/09/03 08:49:35;;;;;;;;;;;;;;;19.34;52.21;101490.78;5036784;28;1132;-49
2021/09/03 08:52:00;;;;;;;;;;;;;;;19.42;53.00;101494.91;5037726;28;1985;-46
2021/09/03 08:54:26;;;;;;;;;;;;;;;19.60;54.47;101494.38;5036336;28;787;-46
2021/09/03 08:56:51;;;;;;;;;;;;;;;19.72;55.98;101491.31;5037153;28;752;-46
2021/09/03 08:59:17;;;;;;;;;;;;;;;19.86;57.07;101490.78;5037360;28;1026;-57
2021/09/03 09:02:01;;;;;;;;;;;;;;;20.08;57.69;101482.19;5037386;28;823;-48
2021/09/03 09:04:26;;;;;;;;;;;;;;;20.29;57.83;101471.91;5037199;28;748;-46
2021/09/03 09:07:01;;;;;;;;;;;;;;;20.54;57.76;101476.50;5036197;28;1315;-54
2021/09/03 09:09:31;;;;;;;;;;;;;;;20.76;57.57;101475.28;5036925;28;844;-54
2021/09/03 09:12:06;;;;;;;;;;;;;;;20.78;57.78;101476.66;5037136;28;1922;-46
2021/09/03 09:15:04;;;;;;;;;;;;;;;21.00;57.27;101472.69;5037017;28;955;-50
2021/09/03 09:17:33;;;;;;;;;;;;;;;20.92;56.96;101478.81;5024948;28;1165;-45
2021/09/03 09:19:59;;;;;;;;;;;;;;;20.06;56.57;101474.16;5036715;28;834;-49
2021/09/03 09:22:25;;;;;;;;;;;;;;;19.97;52.65;101465.63;5037416;28;798;-47
2021/09/03 09:24:50;;;;;;;;;;;;;;;19.31;50.93;101455.50;5037009;28;791;-52
2021/09/03 09:27:23;;;;;;;;;;;;;;;19.14;48.54;101464.84;5036404;28;1520;-50
2021/09/03 09:29:48;;;;;;;;;;;;;;;18.80;48.54;101459.81;5042105;28;1973;-54
2021/09/03 09:32:14;;;;;;;;;;;;;;;18.78;50.05;101452.91;5049698;28;883;-44
2021/09/03 09:34:40;;;;;;;;;;;;;;;19.41;53.17;101443.63;5056529;28;899;-56
2021/09/03 09:37:06;;;;;;;;;;;;;;;19.75;55.18;101441.09;5055630;28;969;-46
2021/09/03 09:39:44;;;;;;;;;;;;;;;19.93;56.50;101436.94;5056019;28;766;-45
2021/09/03 09:42:17;;;;;;;;;;;;;;;20.21;56.96;101442.91;5056244;28;779;-45
2021/09/03 09:44:43;;;;;;;;;;;;;;;20.47;57.00;101435.34;5059350;28;963;-44
2021/09/03 09:47:09;;;;;;;;;;;;;;;20.41;57.77;101436.50;5036706;28;835;-44
2021/09/03 09:49:35;;;;;;;;;;;;;;;20.81;56.85;101433.81;5036091;28;1017;-45
2021/09/03 09:52:00;;;;;;;;;;;;;;;20.70;57.49;101427.50;5036717;28;1984;-45
2021/09/03 09:54:26;;;;;;;;;;;;;;;20.98;56.62;101427.88;5036700;28;868;-51
2021/09/03 09:56:58;;;;;;;;;;;;;;;21.10;56.34;101425.59;5036186;28;847;-52
2021/09/03 09:59:24;;;;;;;;;;;;;;;21.09;56.04;101418.41;5035789;28;998;-44
2021/09/03 10:01:50;;;;;;;;;;;;;;;20.38;55.76;101431.53;5036543;28;811;-48
2021/09/03 10:04:17;;;;;;;;;;;;;;;19.88;53.21;101417.66;5035114;28;879;-43
2021/09/03 10:06:43;;;;;;;;;;;;;;;19.38;51.14;101409.16;5035982;28;1236;-46
2021/09/03 10:09:13;;;;;;;;;;;;;;;19.25;48.58;101415.22;5036636;28;825;-44
2021/09/03 10:11:39;;;;;;;;;;;;;;;18.79;47.28;101414.06;5035859;28;1987;-45
2021/09/03 10:14:05;;;;;;;;;;;;;;;18.46;46.62;101407.09;5035752;28;1006;-44
2021/09/03 10:16:30;;;;;;;;;;;;;;;18.79;48.80;101408.56;5035635;28;899;-48
2021/09/03 10:18:56;;;;;;;;;;;;;;;19.08;52.87;101416.34;5036087;28;763;-44
2021/09/03 10:21:22;;;;;;;;;;;;;;;19.48;54.56;101406.38;5036144;28;787;-46
2021/09/03 10:24:06;;;;;;;;;;;;;;;19.88;55.41;101403.84;5035168;28;807;-52
2021/09/03 10:26:37;;;;;;;;;;;;;;;20.10;56.02;101403.47;5035795;28;835;-44
2021/09/03 10:29:18;;;;;;;;;;;;;;;20.31;56.62;101404.22;5034523;28;963;-43
2021/09/03 10:32:01;;;;;;;;;;;;;;;20.44;56.77;101397.25;5035795;28;1913;-44
2021/09/03 10:34:49;;;;;;;;;;;;;;;20.69;56.40;101398.22;5035499;28;747;-46
2021/09/03 10:37:18;;;;;;;;;;;;;;;20.79;56.49;101389.88;5035913;28;755;-45
2021/09/03 10:39:47;;;;;;;;;;;;;;;20.94;56.14;101388.91;5035828;28;826;-56
2021/09/03 10:42:31;;;;;;;;;;;;;;;20.88;56.41;101389.28;5035601;28;756;-44
2021/09/03 10:45:06;;;;;;;;;;;;;;;21.19;55.58;101387.06;5035455;28;960;-46
2021/09/03 10:47:34;;;;;;;;;;;;;;;20.85;55.67;101385.94;5035693;28;839;-47
2021/09/03 10:50:04;;;;;;;;;;;;;;;20.09;54.67;101393.56;5035058;28;1981;-45
2021/09/03 10:52:29;;;;;;;;;;;;;;;19.93;51.47;101384.50;5034301;28;1198;-49
2021/09/03 10:54:55;;;;;;;;;;;;;;;19.51;49.62;101379.34;5035391;28;764;-45
2021/09/03 10:57:20;;;;;;;;;;;;;;;19.11;47.90;101374.44;5035676;28;756;-47
2021/09/03 11:00:04;;;;;;;;;;;;;;;18.71;47.64;101367.75;5035217;28;1006;-44
2021/09/03 11:02:30;;;;;;;;;;;;;;;19.00;49.99;101378.28;5035101;28;846;-45
2021/09/03 11:05:06;;;;;;;;;;;;;;;19.38;53.59;101376.06;5035632;28;894;-47
2021/09/03 11:07:40;;;;;;;;;;;;;;;19.74;55.66;101373.22;5034436;28;1294;-45
2021/09/03 11:10:06;;;;;;;;;;;;;;;20.15;56.21;101373.09;5035111;28;1913;-46
2021/09/03 11:12:31;;;;;;;;;;;;;;;20.11;57.07;101360.13;5033967;28;1227;-48
2021/09/03 11:14:57;;;;;;;;;;;;;;;20.47;56.62;101352.47;5035621;28;1026;-45
2021/09/03 11:17:22;;;;;;;;;;;;;;;20.54;56.93;101367.91;5035298;28;854;-47
2021/09/03 11:19:48;;;;;;;;;;;;;;;20.87;56.04;101351.69;5034292;28;1255;-45
2021/09/03 11:22:18;;;;;;;;;;;;;;;21.17;55.11;101345.06;5035744;28;815;-45
2021/09/03 11:24:47;;;;;;;;;;;;;;;20.97;55.67;101352.44;5035015;28;851;-45
2021/09/03 11:27:16;;;;;;;;;;;;;;;20.34;55.79;101353.94;5035385;28;823;-44
2021/09/03 11:29:42;;;;;;;;;;;;;;;20.00;53.70;101353.84;5035130;28;1133;-45
2021/09/03 11:32:14;;;;;;;;;;;;;;;19.54;52.07;101351.19;5034819;28;1910;-45
2021/09/03 11:34:40;;;;;;;;;;;;;;;19.39;49.07;101350.16;5035466;28;763;-46
2021/09/03 11:37:06;;;;;;;;;;;;;;;18.97;48.75;101343.00;5035442;28;778;-44
2021/09/03 11:39:33;;;;;;;;;;;;;;;19.03;47.84;101339.16;5034937;28;803;-45
2021/09/03 11:41:59;;;;;;;;;;;;;;;19.18;47.63;101345.75;5035575;28;808;-44
2021/09/03 11:44:24;;;;;;;;;;;;;;;19.12;50.16;101339.41;5035372;28;975;-45
2021/09/03 11:46:50;;;;;;;;;;;;;;;19.37;52.36;101335.78;5034986;28;763;-51
2021/09/03 11:49:20;;;;;;;;;;;;;;;19.64;54.32;101334.63;5034976;28;1112;-45
2021/09/03 11:51:45;;;;;;;;;;;;;;;19.86;55.71;101331.53;5034815;28;1968;-47
2021/09/03 11:54:11;;;;;;;;;;;;;;;20.11;55.97;101333.34;5033672;28;795;-48
2021/09/03 11:56:36;;;;;;;;;;;;;;;20.25;56.66;101327.22;5034020;28;1465;-46
2021/09/03 11:59:05;;;;;;;;;;;;;;;20.39;56.57;101333.75;5050404;28;982;-45
2021/09/03 12:01:31;;;;;;;;;;;;;;;20.63;56.16;101327.50;5033908;28;1311;-47
2021/09/03 12:03:58;;;;;;;;;;;;;;;20.79;55.79;101323.53;5037430;28;824;-48
2021/09/03 12:06:24;;;;;;;;;;;;;;;21.03;55.03;101320.03;5038581;28;764;-49
2021/09/03 12:08:50;;;;;;;;;;;;;;;21.11;54.87;101316.63;5038349;28;772;-48
2021/09/03 12:11:17;;;;;;;;;;;;;;;20.83;55.48;101321.84;5038458;28;1913;-47
2021/09/03 12:13:44;;;;;;;;;;;;;;;20.35;54.55;101327.94;5038423;28;975;-47
2021/09/03 12:16:10;;;;;;;;;;;;;;;19.88;52.56;101325.72;5036587;28;807;-51
2021/09/03 12:18:36;;;;;;;;;;;;;;;19.60;50.60;101316.97;5038648;28;761;-45
2021/09/03 12:21:04;;;;;;;;;;;;;;;19.20;48.61;101324.25;5038630;28;768;-45
2021/09/03 12:23:34;;;;;;;;;;;;;;;18.61;48.09;101307.97;5038324;28;878;-47
2021/09/03 12:26:06;;;;;;;;;;;;;;;18.66;46.73;101315.41;5057174;28;930;-45
2021/09/03 12:28:32;;;;;;;;;;;;;;;18.72;49.67;101308.81;5055060;28;907;-47
2021/09/03 12:30:57;;;;;;;;;;;;;;;19.14;52.53;101313.22;5037612;28;1910;-44
2021/09/03 12:33:24;;;;;;;;;;;;;;;19.71;54.04;101313.06;5037941;28;843;-45
2021/09/03 12:35:50;;;;;;;;;;;;;;;19.86;55.26;101308.63;5037779;28;843;-50
2021/09/03 12:38:15;;;;;;;;;;;;;;;19.98;56.16;101287.06;5037589;28;831;-44
2021/09/03 12:40:41;;;;;;;;;;;;;;;20.31;56.29;101299.28;5038289;28;740;-52
2021/09/03 12:43:15;;;;;;;;;;;;;;;20.41;56.51;101298.38;5037214;28;831;-44
2021/09/03 12:45:44;;;;;;;;;;;;;;;20.46;56.76;101300.28;5037447;28;748;-46
2021/09/03 12:48:10;;;;;;;;;;;;;;;20.71;56.21;101296.53;5037862;28;748;-47
2021/09/03 12:50:35;;;;;;;;;;;;;;;20.74;56.11;101301.47;5037323;28;1985;-46
2021/09/03 12:53:01;;;;;;;;;;;;;;;20.93;55.70;101292.47;5037143;28;764;-50